createdAt,value
2023-05-24T00:00:28.152Z,19.17
2023-05-24T00:03:15.915Z,19.82
2023-05-24T00:05:42.812Z,20.51
2023-05-24T00:08:09.465Z,20.94
2023-05-24T00:10:35.917Z,21.05
2023-05-24T00:13:02.377Z,20.33
2023-05-24T00:15:28.951Z,19.46
2023-05-24T00:17:55.413Z,19.00
2023-05-24T00:20:22.029Z,19.44
2023-05-24T00:22:48.546Z,19.99
2023-05-24T00:25:15.206Z,20.49
2023-05-24T00:27:41.804Z,20.71
2023-05-24T00:30:08.386Z,20.72
2023-05-24T00:32:34.858Z,19.96
2023-05-24T00:35:03.632Z,19.16
2023-05-24T00:37:31.651Z,18.78
2023-05-24T00:39:58.102Z,19.37
2023-05-24T00:42:24.464Z,19.79
2023-05-24T00:44:50.874Z,20.11
2023-05-24T00:47:17.652Z,20.21
2023-05-24T00:49:46.270Z,19.94
2023-05-24T00:52:12.837Z,19.06
2023-05-24T00:54:40.400Z,18.40
2023-05-24T00:57:07.046Z,18.84
2023-05-24T00:59:33.702Z,19.40
2023-05-24T01:02:00.339Z,19.79
2023-05-24T01:04:27.621Z,19.92
2023-05-24T01:07:17.423Z,19.45
2023-05-24T01:10:03.611Z,18.38
2023-05-24T01:12:54.350Z,17.77
2023-05-24T01:15:30.826Z,18.33
2023-05-24T01:18:00.965Z,18.87
2023-05-24T01:20:32.262Z,19.12
2023-05-24T01:23:15.517Z,19.18
2023-05-24T01:25:49.213Z,18.79
2023-05-24T01:28:19.311Z,17.72
2023-05-24T01:30:46.724Z,16.97
2023-05-24T01:33:13.766Z,17.30
2023-05-24T01:35:41.619Z,17.88
2023-05-24T01:38:10.329Z,18.10
2023-05-24T01:40:37.737Z,18.33
2023-05-24T01:43:06.342Z,18.26
2023-05-24T01:45:37.424Z,17.42
2023-05-24T01:48:13.280Z,16.56
2023-05-24T01:50:49.422Z,16.18
2023-05-24T01:53:19.262Z,17.01
2023-05-24T01:55:48.548Z,17.64
2023-05-24T01:58:15.955Z,17.99
2023-05-24T02:00:44.330Z,17.96
2023-05-24T02:03:13.838Z,17.10
2023-05-24T02:05:40.313Z,16.21
2023-05-24T02:08:06.964Z,15.79
2023-05-24T02:10:33.393Z,16.55
2023-05-24T02:13:00.058Z,17.27
2023-05-24T02:15:29.629Z,17.62
2023-05-24T02:17:57.908Z,17.60
2023-05-24T02:20:24.753Z,16.75
2023-05-24T02:22:51.167Z,15.91
2023-05-24T02:25:17.564Z,15.52
2023-05-24T02:27:46.465Z,16.14
2023-05-24T02:30:13.269Z,16.91
2023-05-24T02:32:40.321Z,17.56
2023-05-24T02:35:07.293Z,17.75
2023-05-24T02:37:33.809Z,16.98
2023-05-24T02:40:00.303Z,16.14
2023-05-24T02:42:26.743Z,15.71
2023-05-24T02:44:53.224Z,16.26
2023-05-24T02:47:19.762Z,16.91
2023-05-24T02:49:46.268Z,17.43
2023-05-24T02:52:14.013Z,17.77
2023-05-24T02:54:40.534Z,17.76
2023-05-24T02:57:06.937Z,16.90
2023-05-24T02:59:33.589Z,16.09
2023-05-24T03:02:00.811Z,15.78
2023-05-24T03:04:27.493Z,16.48
2023-05-24T03:06:54.281Z,17.18
2023-05-24T03:09:21.589Z,17.63
2023-05-24T03:11:49.097Z,17.90
2023-05-24T03:14:16.760Z,17.36
2023-05-24T03:16:43.438Z,16.45
2023-05-24T03:19:10.233Z,15.67
2023-05-24T03:21:37.358Z,15.40
2023-05-24T03:24:04.014Z,16.13
2023-05-24T03:26:30.955Z,16.90
2023-05-24T03:28:57.415Z,17.42
2023-05-24T03:31:28.551Z,17.53
2023-05-24T03:33:55.678Z,16.80
2023-05-24T03:36:22.610Z,15.99
2023-05-24T03:38:49.815Z,15.59
2023-05-24T03:41:17.739Z,16.23
2023-05-24T03:43:44.149Z,16.87
2023-05-24T03:46:15.526Z,17.28
2023-05-24T03:48:42.418Z,17.50
2023-05-24T03:51:08.830Z,16.99
2023-05-24T03:53:35.289Z,16.23
2023-05-24T03:56:01.824Z,15.58
2023-05-24T03:58:28.413Z,15.66
2023-05-24T04:00:55.031Z,16.60
2023-05-24T04:03:22.386Z,17.17
2023-05-24T04:05:49.204Z,17.57
2023-05-24T04:08:15.898Z,17.69
2023-05-24T04:10:42.974Z,16.98
2023-05-24T04:13:11.008Z,16.21
2023-05-24T04:15:37.581Z,15.63
2023-05-24T04:18:05.064Z,15.40
2023-05-24T04:20:34.136Z,16.10
2023-05-24T04:23:00.661Z,16.81
2023-05-24T04:25:27.093Z,17.28
2023-05-24T04:27:55.493Z,17.54
2023-05-24T04:30:23.234Z,17.23
2023-05-24T04:32:50.787Z,16.43
2023-05-24T04:35:17.626Z,15.72
2023-05-24T04:37:44.522Z,15.43
2023-05-24T04:40:11.706Z,16.13
2023-05-24T04:42:38.578Z,16.93
2023-05-24T04:45:06.464Z,17.53
2023-05-24T04:47:32.949Z,17.73
2023-05-24T04:49:59.500Z,17.00
2023-05-24T04:52:25.990Z,16.15
2023-05-24T04:54:54.578Z,15.54
2023-05-24T04:57:21.608Z,15.28
2023-05-24T04:59:48.390Z,15.94
2023-05-24T05:02:14.932Z,16.66
2023-05-24T05:04:41.728Z,16.86
2023-05-24T05:07:08.398Z,16.21
2023-05-24T05:09:35.236Z,15.49
2023-05-24T05:12:02.305Z,14.92
2023-05-24T05:14:29.063Z,14.75
2023-05-24T05:16:55.579Z,15.53
2023-05-24T05:19:22.145Z,16.44
2023-05-24T05:21:48.651Z,16.87
2023-05-24T05:24:16.140Z,16.32
2023-05-24T05:26:42.585Z,15.65
2023-05-24T05:29:09.380Z,15.08
2023-05-24T05:31:35.960Z,14.71
2023-05-24T05:34:02.511Z,14.56
2023-05-24T05:36:29.020Z,15.38
2023-05-24T05:38:55.508Z,16.32
2023-05-24T05:41:21.984Z,16.80
2023-05-24T05:43:48.470Z,16.35
2023-05-24T05:46:15.571Z,15.73
2023-05-24T05:48:43.279Z,15.27
2023-05-24T05:51:11.498Z,14.97
2023-05-24T05:53:37.887Z,15.18
2023-05-24T05:56:04.475Z,16.17
2023-05-24T05:58:31.115Z,16.69
2023-05-24T06:00:57.942Z,16.28
2023-05-24T06:03:24.588Z,15.76
2023-05-24T06:05:51.264Z,15.35
2023-05-24T06:08:17.669Z,15.03
2023-05-24T06:10:44.927Z,14.82
2023-05-24T06:13:13.926Z,14.77
2023-05-24T06:15:40.518Z,15.61
2023-05-24T06:18:07.080Z,16.76
2023-05-24T06:20:33.717Z,17.16
2023-05-24T06:23:00.770Z,16.66
2023-05-24T06:25:30.139Z,16.12
2023-05-24T06:27:56.733Z,15.70
2023-05-24T06:30:23.251Z,15.41
2023-05-24T06:32:50.191Z,15.17
2023-05-24T06:35:17.116Z,14.96
2023-05-24T06:37:43.717Z,15.04
2023-05-24T06:40:10.888Z,16.11
2023-05-24T06:42:37.531Z,17.17
2023-05-24T06:45:04.734Z,17.56
2023-05-24T06:47:31.477Z,16.98
2023-05-24T06:49:58.164Z,16.38
2023-05-24T06:52:24.858Z,15.89
2023-05-24T06:54:51.721Z,15.57
2023-05-24T06:57:18.339Z,15.35
2023-05-24T06:59:44.945Z,15.21
2023-05-24T07:02:11.533Z,15.09
2023-05-24T07:04:40.678Z,15.23
2023-05-24T07:07:08.323Z,16.34
2023-05-24T07:09:35.119Z,17.15
2023-05-24T07:12:01.950Z,16.85
2023-05-24T07:14:28.403Z,16.43
2023-05-24T07:16:56.726Z,16.13
2023-05-24T07:19:27.066Z,15.85
2023-05-24T07:21:53.729Z,15.62
2023-05-24T07:24:21.379Z,15.41
2023-05-24T07:26:48.648Z,15.25
2023-05-24T07:29:15.427Z,15.26
2023-05-24T07:31:42.090Z,16.19
2023-05-24T07:34:08.572Z,17.10
2023-05-24T07:36:35.163Z,16.95
2023-05-24T07:39:04.049Z,16.51
2023-05-24T07:41:30.820Z,16.16
2023-05-24T07:43:57.262Z,15.90
2023-05-24T07:46:23.866Z,15.77
2023-05-24T07:48:50.818Z,15.70
2023-05-24T07:51:17.249Z,15.63
2023-05-24T07:53:43.727Z,15.51
2023-05-24T07:56:10.547Z,15.37
2023-05-24T07:58:37.221Z,15.29
2023-05-24T12:09:29.498Z,19.18
2023-05-24T12:11:58.539Z,19.01
2023-05-24T12:14:30.925Z,18.92
2023-05-24T12:17:01.097Z,18.79
2023-05-24T12:19:36.758Z,18.68
2023-05-24T12:22:07.241Z,18.64
2023-05-24T12:24:37.739Z,18.64
2023-05-24T12:27:07.411Z,18.64
2023-05-24T12:29:38.648Z,18.75
2023-05-24T12:32:12.343Z,18.92
2023-05-24T12:34:42.621Z,19.09
2023-05-24T12:37:15.149Z,19.31
2023-05-24T12:39:44.523Z,19.51
2023-05-24T12:42:13.902Z,19.62
2023-05-24T12:44:42.501Z,19.64
2023-05-24T12:47:10.672Z,19.69
2023-05-24T12:49:38.858Z,19.75
2023-05-24T12:52:07.231Z,19.79
2023-05-24T12:54:35.619Z,19.76
2023-05-24T12:57:03.869Z,19.69
2023-05-24T12:59:31.902Z,19.64
2023-05-24T13:01:59.733Z,19.58
2023-05-24T13:04:28.213Z,19.48
2023-05-24T13:06:56.254Z,19.43
2023-05-24T13:09:25.959Z,19.45
2023-05-24T13:11:55.425Z,19.48
2023-05-24T13:14:23.487Z,19.46
2023-05-24T13:16:51.584Z,19.50
2023-05-24T13:19:19.718Z,19.64
2023-05-24T13:21:47.710Z,19.96
2023-05-24T13:24:16.556Z,20.44
2023-05-24T13:26:45.634Z,20.88
2023-05-24T13:31:48.246Z,21.15
2023-05-24T13:34:16.143Z,21.22
2023-05-24T13:36:45.610Z,21.20
2023-05-24T13:39:16.268Z,21.22
2023-05-24T13:41:45.500Z,21.34
2023-05-24T13:44:14.533Z,21.70
2023-05-24T13:46:43.644Z,22.12
2023-05-24T13:49:12.904Z,22.51
2023-05-24T13:51:40.866Z,22.83
2023-05-24T13:54:08.911Z,22.97
2023-05-24T13:56:37.273Z,23.06
2023-05-24T13:59:06.485Z,23.06
2023-05-24T14:01:37.144Z,23.01
2023-05-24T14:04:06.186Z,23.09
2023-05-24T14:06:34.906Z,23.24
2023-05-24T14:09:02.800Z,23.55
2023-05-24T14:11:31.881Z,23.95
2023-05-24T14:16:31.690Z,24.33
2023-05-24T14:18:59.868Z,24.19
2023-05-24T14:21:28.022Z,23.98
2023-05-24T14:23:56.091Z,23.81
2023-05-24T14:26:24.473Z,23.73
2023-05-24T14:28:55.993Z,23.89
2023-05-24T14:31:24.867Z,24.02
2023-05-24T14:33:53.133Z,24.13
2023-05-24T14:36:21.312Z,24.44
2023-05-24T14:38:49.471Z,24.96
2023-05-24T14:41:17.389Z,25.31
2023-05-24T14:43:45.665Z,25.46
2023-05-24T14:46:13.643Z,25.72
2023-05-24T14:48:41.810Z,26.06
2023-05-24T14:51:09.870Z,26.58
2023-05-24T14:53:37.753Z,27.05
2023-05-24T14:56:08.243Z,27.47
2023-05-24T14:58:36.426Z,28.02
2023-05-24T15:01:04.714Z,28.60
2023-05-24T15:03:33.177Z,29.03
2023-05-24T15:06:01.945Z,29.48
2023-05-24T15:08:30.978Z,29.60
2023-05-24T15:10:59.610Z,29.69
2023-05-24T15:13:27.805Z,29.55
2023-05-24T15:15:59.052Z,29.14
2023-05-24T15:18:30.464Z,28.93
2023-05-24T15:20:58.598Z,29.22
2023-05-24T15:23:26.859Z,29.83
2023-05-24T15:25:54.750Z,30.53
2023-05-24T15:28:24.763Z,31.01
2023-05-24T15:30:54.543Z,31.16
2023-05-24T15:33:22.897Z,31.43
2023-05-24T15:35:51.274Z,31.32
2023-05-24T15:38:19.450Z,31.46
2023-05-24T15:40:47.364Z,31.78
2023-05-24T15:46:23.204Z,32.37
2023-05-24T15:48:51.223Z,32.37
2023-05-24T15:51:57.460Z,32.88
2023-05-24T15:54:08.113Z,33.46
2023-05-24T15:56:35.921Z,33.93
2023-05-24T15:59:03.880Z,34.23
2023-05-24T16:01:31.903Z,33.82
2023-05-24T16:04:00.655Z,32.61
2023-05-24T16:06:28.859Z,31.45
2023-05-24T16:08:56.855Z,30.54
2023-05-24T16:11:24.850Z,29.77
2023-05-24T16:13:54.289Z,29.82
2023-05-24T16:16:23.712Z,30.55
2023-05-24T16:18:51.762Z,30.75
2023-05-24T16:21:19.961Z,30.32
2023-05-24T16:23:48.232Z,29.92
2023-05-24T16:27:03.816Z,29.15
2023-05-24T16:29:32.071Z,28.45
2023-05-24T16:32:00.547Z,28.07
2023-05-24T16:34:28.860Z,28.55
2023-05-24T16:36:57.454Z,28.89
2023-05-24T16:39:26.067Z,29.62
2023-05-24T16:41:54.089Z,30.59
2023-05-24T16:44:22.458Z,31.50
2023-05-24T16:46:50.476Z,32.25
2023-05-24T16:49:18.815Z,32.86
2023-05-24T16:51:47.066Z,32.63
2023-05-24T16:54:16.329Z,32.34
2023-05-24T16:56:46.200Z,32.19
2023-05-24T16:59:14.461Z,31.72
2023-05-24T17:01:45.275Z,31.24
2023-05-24T17:04:13.888Z,31.08
2023-05-24T17:06:42.320Z,30.94
2023-05-24T17:09:10.209Z,30.97
2023-05-24T17:11:38.077Z,31.24
2023-05-24T17:14:06.470Z,31.84
2023-05-24T17:16:34.515Z,32.51
2023-05-24T17:19:03.578Z,32.99
2023-05-24T17:21:32.417Z,33.41
2023-05-24T17:24:00.886Z,33.67
2023-05-24T17:26:29.303Z,33.49
2023-05-24T17:28:57.690Z,33.29
2023-05-24T17:31:25.690Z,33.19
2023-05-24T17:33:55.822Z,33.25
2023-05-24T17:36:23.979Z,33.24
2023-05-24T17:38:51.843Z,32.63
2023-05-24T17:41:21.093Z,31.65
2023-05-24T17:43:50.364Z,30.79
2023-05-24T17:46:18.308Z,29.73
2023-05-24T17:48:47.787Z,28.59
2023-05-24T17:51:19.474Z,27.46
2023-05-24T17:53:47.422Z,26.52
2023-05-24T17:56:16.513Z,25.66
2023-05-24T17:58:47.471Z,24.82
2023-05-24T18:01:16.471Z,24.12
2023-05-24T18:03:44.472Z,23.57
2023-05-24T18:06:12.859Z,23.10
2023-05-24T18:08:43.872Z,22.68
2023-05-24T18:11:14.000Z,22.28
2023-05-24T18:13:43.186Z,21.92
2023-05-24T18:16:12.316Z,21.61
2023-05-24T18:18:41.454Z,21.31
2023-05-24T18:21:09.895Z,21.01
2023-05-24T18:23:38.159Z,20.74
2023-05-24T18:26:11.363Z,20.50
2023-05-24T18:28:42.213Z,20.26
2023-05-24T18:31:12.002Z,20.02
2023-05-24T18:33:41.136Z,19.81
2023-05-24T18:36:09.632Z,19.59
2023-05-24T18:38:41.437Z,19.39
2023-05-24T18:41:11.908Z,19.18
2023-05-24T18:43:43.153Z,18.98
2023-05-24T18:46:13.950Z,18.79
2023-05-24T18:48:42.225Z,18.61
2023-05-24T18:51:10.484Z,18.43
2023-05-24T18:53:40.192Z,18.25
2023-05-24T18:56:08.645Z,18.09
2023-05-24T18:58:37.666Z,17.94
2023-05-24T19:01:06.336Z,17.79
2023-05-24T19:03:34.868Z,17.64
2023-05-24T19:06:03.560Z,17.51
2023-05-24T19:08:31.801Z,17.41
2023-05-24T19:10:59.825Z,17.31
2023-05-24T19:13:28.122Z,17.21
2023-05-24T19:15:56.532Z,17.11
2023-05-24T19:18:26.628Z,17.01
2023-05-24T19:20:54.837Z,16.92
2023-05-24T19:23:23.093Z,16.82
2023-05-24T19:25:51.475Z,16.70
2023-05-24T19:28:19.710Z,16.60
2023-05-24T19:30:48.633Z,16.52
2023-05-24T19:33:16.909Z,16.44
2023-05-24T19:35:46.146Z,16.36
2023-05-24T19:38:17.616Z,16.29
2023-05-24T19:40:46.050Z,16.20
2023-05-24T19:43:14.043Z,16.12
2023-05-24T19:45:42.321Z,16.02
2023-05-24T19:48:11.921Z,15.92
2023-05-24T19:50:40.652Z,15.84
2023-05-24T19:53:09.052Z,15.75
2023-05-24T19:55:37.628Z,15.67
2023-05-24T19:58:05.863Z,15.60
2023-05-24T20:00:34.197Z,15.52
2023-05-24T20:03:02.637Z,15.46
2023-05-24T20:05:31.158Z,15.39
2023-05-24T20:07:59.491Z,15.34
2023-05-24T20:10:30.177Z,15.28
2023-05-24T20:12:59.225Z,15.18
2023-05-24T20:15:28.398Z,15.09
2023-05-24T20:17:56.688Z,15.01
2023-05-24T20:20:26.107Z,14.96
2023-05-24T20:22:54.378Z,14.90
2023-05-24T20:25:24.253Z,14.84
2023-05-24T20:27:52.430Z,15.04
2023-05-24T20:30:20.776Z,16.33
2023-05-24T20:32:49.319Z,17.41
2023-05-24T20:35:17.380Z,17.89
2023-05-24T20:37:45.587Z,17.42
2023-05-24T20:40:23.097Z,16.86
2023-05-24T20:42:51.727Z,16.44
2023-05-24T20:45:19.906Z,16.13
2023-05-24T20:47:48.911Z,15.86
2023-05-24T20:50:17.937Z,15.62
2023-05-24T20:52:46.317Z,15.42
2023-05-24T20:55:16.647Z,15.24
2023-05-24T20:57:45.206Z,15.09
2023-05-24T21:00:13.633Z,14.95
2023-05-24T21:02:41.518Z,14.82
2023-05-24T21:05:10.009Z,14.71
2023-05-24T21:07:38.407Z,14.62
2023-05-24T21:10:07.701Z,14.53
2023-05-24T21:12:35.697Z,14.46
2023-05-24T21:15:04.234Z,14.37
2023-05-24T21:17:32.097Z,14.30
2023-05-24T21:19:59.952Z,14.43
2023-05-24T21:22:27.876Z,15.49
2023-05-24T21:24:56.700Z,16.60
2023-05-24T21:27:24.588Z,17.25
2023-05-24T21:29:52.390Z,16.87
2023-05-24T21:32:20.435Z,16.32
2023-05-24T21:34:49.775Z,15.90
2023-05-24T21:37:17.606Z,15.59
2023-05-24T21:39:45.613Z,15.37
2023-05-24T21:42:13.417Z,15.21
2023-05-24T21:44:41.245Z,15.06
2023-05-24T21:47:09.309Z,14.93
2023-05-24T21:49:37.116Z,14.83
2023-05-24T21:52:05.163Z,14.75
2023-05-24T21:54:33.006Z,14.67
2023-05-24T21:57:01.579Z,14.82
2023-05-24T21:59:29.532Z,15.92
2023-05-24T22:01:57.402Z,17.01
2023-05-24T22:04:25.410Z,17.59
2023-05-24T22:06:53.184Z,17.19
2023-05-24T22:09:21.032Z,16.64
2023-05-24T22:11:48.843Z,16.23
2023-05-24T22:14:16.781Z,15.92
2023-05-24T22:16:44.768Z,15.68
2023-05-24T22:19:16.430Z,15.51
2023-05-24T22:21:50.163Z,15.36
2023-05-24T22:24:18.219Z,15.23
2023-05-24T22:26:46.781Z,15.11
2023-05-24T22:29:14.860Z,15.22
2023-05-24T22:31:42.697Z,16.27
2023-05-24T22:34:11.563Z,17.27
2023-05-24T22:36:39.581Z,17.72
2023-05-24T22:39:07.945Z,17.24
2023-05-24T22:41:35.841Z,16.61
2023-05-24T22:44:03.774Z,16.12
2023-05-24T22:46:31.913Z,15.76
2023-05-24T22:49:03.245Z,15.48
2023-05-24T22:51:31.870Z,15.24
2023-05-24T22:54:00.497Z,15.01
2023-05-24T22:56:28.489Z,14.82
2023-05-24T22:58:56.912Z,14.89
2023-05-24T23:01:24.815Z,15.97
2023-05-24T23:03:53.491Z,17.03
2023-05-24T23:06:21.404Z,17.47
2023-05-24T23:08:49.239Z,16.96
2023-05-24T23:11:17.545Z,16.36
2023-05-24T23:13:45.358Z,15.91
2023-05-24T23:16:17.959Z,15.57
2023-05-24T23:18:45.977Z,15.30
2023-05-24T23:21:22.445Z,15.08
2023-05-24T23:23:51.433Z,14.86
2023-05-24T23:26:19.596Z,14.68
2023-05-24T23:28:47.506Z,14.49
2023-05-24T23:31:15.815Z,14.56
2023-05-24T23:33:43.787Z,15.59
2023-05-24T23:36:11.772Z,16.68
2023-05-24T23:38:39.608Z,17.21
2023-05-24T23:41:07.389Z,16.72
2023-05-24T23:43:35.276Z,16.09
2023-05-24T23:46:03.352Z,15.62
2023-05-24T23:48:31.209Z,15.26
2023-05-24T23:50:59.169Z,14.99
2023-05-24T23:53:26.974Z,14.76
2023-05-24T23:55:54.844Z,14.55
2023-05-24T23:58:22.777Z,14.36
